createdAt,value
2017-11-08T00:02:24.747Z,5.80
2017-11-08T00:05:26.661Z,5.80
2017-11-08T00:08:28.595Z,5.80
2017-11-08T00:11:30.607Z,5.80
2017-11-08T00:14:33.384Z,5.80
2017-11-08T00:17:35.307Z,5.80
2017-11-08T00:20:37.243Z,5.80
2017-11-08T00:23:39.242Z,5.80
2017-11-08T00:26:41.648Z,5.80
2017-11-08T00:29:44.314Z,5.80
2017-11-08T00:32:46.309Z,5.80
2017-11-08T00:35:49.023Z,5.80
2017-11-08T00:38:51.421Z,5.80
2017-11-08T00:41:54.201Z,5.80
2017-11-08T00:44:56.922Z,5.80
2017-11-08T00:47:59.589Z,5.80
2017-11-08T00:51:01.873Z,5.80
2017-11-08T00:54:03.893Z,5.80
2017-11-08T00:57:06.994Z,5.80
2017-11-08T01:00:08.888Z,5.80
2017-11-08T01:03:11.571Z,5.80
2017-11-08T01:06:13.466Z,5.80
2017-11-08T01:09:16.443Z,5.80
2017-11-08T01:12:18.447Z,5.80
2017-11-08T01:15:21.201Z,5.80
2017-11-08T01:18:23.837Z,5.90
2017-11-08T01:21:26.523Z,5.90
2017-11-08T01:24:28.530Z,5.80
2017-11-08T01:27:30.789Z,5.90
2017-11-08T01:30:32.844Z,5.90
2017-11-08T01:33:35.088Z,5.90
2017-11-08T01:36:37.022Z,5.90
2017-11-08T01:39:39.377Z,5.90
2017-11-08T01:42:42.241Z,5.90
2017-11-08T01:45:44.462Z,5.90
2017-11-08T01:48:47.234Z,5.90
2017-11-08T01:51:49.229Z,5.90
2017-11-08T01:54:51.153Z,6.00
2017-11-08T01:57:53.430Z,5.90
2017-11-08T02:00:56.218Z,6.00
2017-11-08T02:03:58.151Z,5.90
2017-11-08T02:07:00.037Z,6.00
2017-11-08T02:10:02.223Z,5.90
2017-11-08T02:13:04.138Z,6.00
2017-11-08T02:16:06.955Z,6.00
2017-11-08T02:19:09.746Z,6.00
2017-11-08T02:22:11.738Z,6.00
2017-11-08T02:25:15.037Z,6.00
2017-11-08T02:28:18.663Z,6.00
2017-11-08T02:31:20.569Z,6.00
2017-11-08T02:34:23.559Z,6.10
2017-11-08T02:37:25.479Z,6.00
2017-11-08T02:40:27.417Z,6.10
2017-11-08T02:43:29.518Z,6.10
2017-11-08T02:46:32.518Z,6.10
2017-11-08T02:49:35.474Z,6.10
2017-11-08T02:52:37.461Z,6.10
2017-11-08T02:55:39.358Z,6.10
2017-11-08T02:58:41.784Z,6.10
2017-11-08T03:01:44.554Z,6.10
2017-11-08T03:04:46.498Z,6.10
2017-11-08T03:07:48.418Z,6.10
2017-11-08T03:10:50.342Z,6.10
2017-11-08T03:13:53.011Z,6.10
2017-11-08T03:16:55.257Z,6.10
2017-11-08T03:19:57.262Z,6.10
2017-11-08T03:22:59.505Z,6.10
2017-11-08T03:26:02.255Z,6.10
2017-11-08T03:29:04.460Z,6.10
2017-11-08T03:32:06.433Z,6.10
2017-11-08T03:35:08.386Z,6.10
2017-11-08T03:38:10.277Z,6.10
2017-11-08T03:41:12.579Z,6.20
2017-11-08T03:44:14.497Z,6.10
2017-11-08T03:47:17.274Z,6.20
2017-11-08T03:50:19.221Z,6.20
2017-11-08T03:53:21.226Z,6.20
2017-11-08T03:56:23.178Z,6.20
2017-11-08T03:59:25.116Z,6.20
2017-11-08T04:02:27.129Z,6.30
2017-11-08T04:05:29.305Z,6.30
2017-11-08T04:08:32.066Z,6.30
2017-11-08T04:11:34.293Z,6.30
2017-11-08T04:14:36.978Z,6.30
2017-11-08T04:17:40.520Z,6.30
2017-11-08T04:20:43.201Z,6.30
2017-11-08T04:23:46.160Z,6.30
2017-11-08T04:26:48.090Z,6.30
2017-11-08T04:29:50.347Z,6.40
2017-11-08T04:32:52.240Z,6.40
2017-11-08T04:35:54.451Z,6.40
2017-11-08T04:38:57.105Z,6.40
2017-11-08T04:41:59.330Z,6.30
2017-11-08T04:45:01.263Z,6.40
2017-11-08T04:48:03.479Z,6.40
2017-11-08T04:51:06.121Z,6.40
2017-11-08T04:54:09.083Z,6.40
2017-11-08T04:57:11.071Z,6.40
2017-11-08T05:00:13.083Z,6.40
2017-11-08T05:03:15.789Z,6.40
2017-11-08T05:06:18.588Z,6.40
2017-11-08T05:09:21.357Z,6.40
2017-11-08T05:12:23.308Z,6.40
2017-11-08T05:15:25.252Z,6.40
2017-11-08T05:18:27.949Z,6.40
2017-11-08T05:21:30.753Z,6.40
2017-11-08T05:24:32.700Z,6.40
2017-11-08T05:27:34.696Z,6.50
2017-11-08T05:30:37.008Z,6.50
2017-11-08T05:33:39.774Z,6.50
2017-11-08T05:36:41.818Z,6.50
2017-11-08T05:39:43.733Z,6.50
2017-11-08T05:42:45.930Z,6.50
2017-11-08T05:45:47.935Z,6.50
2017-11-08T05:48:49.855Z,6.50
2017-11-08T05:51:51.777Z,6.60
2017-11-08T05:54:53.944Z,6.60
2017-11-08T05:57:55.837Z,6.60
2017-11-08T06:00:58.049Z,6.60
2017-11-08T06:04:00.016Z,6.60
2017-11-08T06:07:02.026Z,6.60
2017-11-08T06:10:03.928Z,6.60
2017-11-08T06:13:06.884Z,6.60
2017-11-08T06:16:08.870Z,6.50
2017-11-08T06:19:10.849Z,6.60
2017-11-08T06:22:12.861Z,6.60
2017-11-08T06:25:14.789Z,6.60
2017-11-08T06:28:16.708Z,6.60
2017-11-08T06:31:18.651Z,6.60
2017-11-08T06:34:20.571Z,6.70
2017-11-08T06:37:22.838Z,6.70
2017-11-08T06:40:25.569Z,6.70
2017-11-08T06:43:27.719Z,6.70
2017-11-08T06:46:29.711Z,6.80
2017-11-08T06:49:31.703Z,6.80
2017-11-08T06:52:33.606Z,6.80
2017-11-08T06:55:35.875Z,6.90
2017-11-08T06:58:37.858Z,6.90
2017-11-08T07:01:39.786Z,6.90
2017-11-08T07:04:42.567Z,7.00
2017-11-08T07:07:44.502Z,7.00
2017-11-08T07:10:46.431Z,7.00
2017-11-08T07:13:49.411Z,7.00
2017-11-08T07:16:51.409Z,7.00
2017-11-08T07:19:54.085Z,7.00
2017-11-08T07:22:56.094Z,7.10
2017-11-08T07:25:58.063Z,7.10
2017-11-08T07:29:00.087Z,7.10
2017-11-08T07:32:02.858Z,7.10
2017-11-08T07:35:04.850Z,7.10
2017-11-08T07:38:06.817Z,7.20
2017-11-08T07:41:08.748Z,7.20
2017-11-08T07:44:10.671Z,7.20
2017-11-08T07:47:12.595Z,7.30
2017-11-08T07:50:15.289Z,7.40
2017-11-08T07:53:17.272Z,7.40
2017-11-08T07:56:19.993Z,7.50
2017-11-08T07:59:22.006Z,7.50
2017-11-08T08:02:24.043Z,7.70
2017-11-08T08:05:26.707Z,8.10
2017-11-08T08:08:29.027Z,8.00
2017-11-08T08:11:30.940Z,8.30
2017-11-08T08:14:33.179Z,8.40
2017-11-08T08:17:35.911Z,8.40
2017-11-08T08:20:38.993Z,8.40
2017-11-08T08:23:40.902Z,8.30
2017-11-08T08:26:43.600Z,8.30
2017-11-08T08:29:46.291Z,8.20
2017-11-08T08:32:49.094Z,8.20
2017-11-08T08:35:50.992Z,8.10
2017-11-08T08:38:54.158Z,8.10
2017-11-08T08:41:56.183Z,8.00
2017-11-08T08:44:58.213Z,8.00
2017-11-08T08:48:00.214Z,8.00
2017-11-08T08:51:02.198Z,8.00
2017-11-08T08:54:04.094Z,8.00
2017-11-08T08:57:06.158Z,8.10
2017-11-08T09:00:08.049Z,8.10
2017-11-08T09:03:10.037Z,8.10
2017-11-08T09:06:12.017Z,8.10
2017-11-08T09:09:13.952Z,8.10
2017-11-08T09:12:15.869Z,8.10
2017-11-08T09:15:17.863Z,8.20
2017-11-08T09:18:19.859Z,8.20
2017-11-08T09:21:21.783Z,8.30
2017-11-08T09:24:23.724Z,8.30
2017-11-08T09:27:25.662Z,8.50
2017-11-08T09:30:27.569Z,8.70
2017-11-08T09:33:29.512Z,8.80
2017-11-08T09:36:31.513Z,9.00
2017-11-08T09:39:33.439Z,9.00
2017-11-08T09:42:35.343Z,9.00
2017-11-08T09:45:38.058Z,9.20
2017-11-08T09:48:39.955Z,9.20
2017-11-08T09:51:42.814Z,9.20
2017-11-08T09:54:44.787Z,9.20
2017-11-08T09:57:46.765Z,9.10
2017-11-08T10:00:48.685Z,9.00
2017-11-08T10:03:50.660Z,9.00
2017-11-08T10:06:52.617Z,9.00
2017-11-08T10:09:54.647Z,9.00
2017-11-08T10:12:56.550Z,9.00
2017-11-08T10:15:58.523Z,8.90
2017-11-08T10:19:01.150Z,8.90
2017-11-08T10:22:03.869Z,8.90
2017-11-08T10:25:05.881Z,8.90
2017-11-08T10:28:08.681Z,9.00
2017-11-08T10:31:11.353Z,9.10
2017-11-08T10:34:14.146Z,9.10
2017-11-08T10:37:16.065Z,9.20
2017-11-08T10:40:18.861Z,9.50
2017-11-08T10:43:21.631Z,9.50
2017-11-08T10:46:24.320Z,9.60
2017-11-08T10:49:27.001Z,9.60
2017-11-08T10:52:28.918Z,9.60
2017-11-08T10:55:30.821Z,9.60
2017-11-08T10:58:32.774Z,9.60
2017-11-08T11:01:35.439Z,9.60
2017-11-08T11:04:37.389Z,9.60
2017-11-08T11:07:39.292Z,9.60
2017-11-08T11:10:41.212Z,9.70
2017-11-08T11:13:43.159Z,9.80
2017-11-08T11:16:45.104Z,9.90
2017-11-08T11:19:47.042Z,9.80
2017-11-08T11:22:48.971Z,9.70
2017-11-08T11:25:50.922Z,9.70
2017-11-08T11:28:53.811Z,9.60
2017-11-08T11:31:55.708Z,9.60
2017-11-08T11:34:58.397Z,9.60
2017-11-08T11:38:00.317Z,9.50
2017-11-08T11:41:02.266Z,9.50
2017-11-08T11:44:04.194Z,9.50
2017-11-08T11:47:06.187Z,9.40
2017-11-08T11:50:08.117Z,9.30
2017-11-08T11:53:10.065Z,9.30
2017-11-08T11:56:11.970Z,9.30
2017-11-08T11:59:13.888Z,9.20
2017-11-08T12:02:16.557Z,9.00
2017-11-08T12:05:20.069Z,9.00
2017-11-08T12:08:22.557Z,9.00
2017-11-08T12:11:24.475Z,9.00
2017-11-08T12:14:27.163Z,9.00
2017-11-08T12:17:29.125Z,8.90
2017-11-08T12:20:31.051Z,8.90
2017-11-08T12:23:33.939Z,8.90
2017-11-08T12:26:37.587Z,8.90
2017-11-08T12:29:40.272Z,8.90
2017-11-08T12:32:42.185Z,8.90
2017-11-08T12:35:44.135Z,8.80
2017-11-08T12:38:46.834Z,8.80
2017-11-08T12:41:48.779Z,8.80
2017-11-08T12:44:50.723Z,8.90
2017-11-08T12:47:52.642Z,8.90
2017-11-08T12:50:54.566Z,8.90
2017-11-08T12:53:57.255Z,8.90
2017-11-08T12:56:59.175Z,8.90
2017-11-08T13:00:01.879Z,8.90
2017-11-08T13:03:04.575Z,8.90
2017-11-08T13:06:07.295Z,8.90
2017-11-08T13:09:09.215Z,8.90
2017-11-08T13:12:11.138Z,8.90
2017-11-08T13:15:13.834Z,8.80
2017-11-08T13:18:16.594Z,8.80
2017-11-08T13:21:18.495Z,8.80
2017-11-08T13:24:20.415Z,8.80
2017-11-08T13:27:22.339Z,8.80
2017-11-08T13:30:24.661Z,8.90
2017-11-08T13:33:26.744Z,8.90
2017-11-08T13:36:28.686Z,8.90
2017-11-08T13:39:30.580Z,8.90
2017-11-08T13:42:32.905Z,8.90
2017-11-08T13:45:34.822Z,8.90
2017-11-08T13:48:37.252Z,9.00
2017-11-08T13:51:39.152Z,9.00
2017-11-08T13:54:41.226Z,9.00
2017-11-08T13:57:43.936Z,9.10
2017-11-08T14:00:46.244Z,9.10
2017-11-08T14:03:48.911Z,9.10
2017-11-08T14:06:50.829Z,9.10
2017-11-08T14:09:53.511Z,9.10
2017-11-08T14:12:55.825Z,9.10
2017-11-08T14:15:58.524Z,9.00
2017-11-08T14:19:01.645Z,9.00
2017-11-08T14:22:03.553Z,9.00
2017-11-08T14:25:05.600Z,9.00
2017-11-08T14:28:09.203Z,9.00
2017-11-08T14:31:11.168Z,9.00
2017-11-08T14:34:13.152Z,8.90
2017-11-08T14:37:15.106Z,8.90
2017-11-08T14:40:17.010Z,8.90
2017-11-08T14:43:19.050Z,8.80
2017-11-08T14:46:21.010Z,8.80
2017-11-08T14:49:24.732Z,8.80
2017-11-08T14:52:26.655Z,8.70
2017-11-08T14:55:28.695Z,8.70
2017-11-08T14:58:30.605Z,8.70
2017-11-08T15:01:32.651Z,8.70
2017-11-08T15:04:34.646Z,8.60
2017-11-08T15:07:36.945Z,8.60
2017-11-08T15:10:39.423Z,8.60
2017-11-08T15:13:41.831Z,8.50
2017-11-08T15:16:43.787Z,8.50
2017-11-08T15:19:46.205Z,8.50
2017-11-08T15:22:48.226Z,8.50
2017-11-08T15:25:50.483Z,8.50
2017-11-08T15:28:52.574Z,8.50
2017-11-08T15:31:55.417Z,8.40
2017-11-08T15:34:57.327Z,8.40
2017-11-08T15:37:59.655Z,8.40
2017-11-08T15:41:02.450Z,8.30
2017-11-08T15:44:04.413Z,8.30
2017-11-08T15:47:06.342Z,8.30
2017-11-08T15:50:08.376Z,8.30
2017-11-08T15:53:11.206Z,8.30
2017-11-08T15:56:13.595Z,8.30
2017-11-08T15:59:15.557Z,8.30
2017-11-08T16:02:17.976Z,8.30
2017-11-08T16:05:20.659Z,8.30
2017-11-08T16:08:22.933Z,8.20
2017-11-08T16:11:24.830Z,8.20
2017-11-08T16:14:26.894Z,8.20
2017-11-08T16:17:28.922Z,8.10
2017-11-08T16:20:31.809Z,8.10
2017-11-08T16:23:34.487Z,8.10
2017-11-08T16:26:36.792Z,8.10
2017-11-08T16:29:38.768Z,8.10
2017-11-08T16:32:41.290Z,8.10
2017-11-08T16:35:44.060Z,8.00
2017-11-08T16:38:46.075Z,8.00
2017-11-08T16:41:48.876Z,8.00
2017-11-08T16:44:52.089Z,8.00
2017-11-08T16:47:54.879Z,8.00
2017-11-08T16:50:57.148Z,8.00
2017-11-08T16:53:59.136Z,8.00
2017-11-08T16:57:01.447Z,8.00
2017-11-08T17:00:03.382Z,8.00
2017-11-08T17:03:05.396Z,8.00
2017-11-08T17:06:07.326Z,8.00
2017-11-08T17:09:09.331Z,8.00
2017-11-08T17:12:11.366Z,8.10
2017-11-08T17:15:13.634Z,8.10
2017-11-08T17:18:15.639Z,8.10
2017-11-08T17:21:17.613Z,8.10
2017-11-08T17:24:19.601Z,8.10
2017-11-08T17:27:21.782Z,8.00
2017-11-08T17:30:23.936Z,8.10
2017-11-08T17:33:26.285Z,8.00
2017-11-08T17:36:28.975Z,8.00
2017-11-08T17:39:31.687Z,8.00
2017-11-08T17:42:34.477Z,8.10
2017-11-08T17:45:36.431Z,8.00
2017-11-08T17:48:38.443Z,8.10
2017-11-08T17:51:41.228Z,8.10
2017-11-08T17:54:43.119Z,8.00
2017-11-08T17:57:45.088Z,8.10
2017-11-08T18:00:46.995Z,8.00
2017-11-08T18:03:49.902Z,8.10
2017-11-08T18:06:52.604Z,8.10
2017-11-08T18:09:55.392Z,8.00
2017-11-08T18:12:57.359Z,8.00
2017-11-08T18:16:00.466Z,8.00
2017-11-08T18:19:02.486Z,8.00
2017-11-08T18:22:05.584Z,8.00
2017-11-08T18:25:08.286Z,8.00
2017-11-08T18:28:11.100Z,8.00
2017-11-08T18:31:13.761Z,8.00
2017-11-08T18:34:15.768Z,8.00
2017-11-08T18:37:18.541Z,8.00
2017-11-08T18:40:21.676Z,8.00
2017-11-08T18:43:24.419Z,8.00
2017-11-08T18:46:26.703Z,8.00
2017-11-08T18:49:28.632Z,8.00
2017-11-08T18:52:30.949Z,8.00
2017-11-08T18:55:33.724Z,8.00
2017-11-08T18:58:36.839Z,8.00
2017-11-08T19:01:38.778Z,8.00
2017-11-08T19:04:41.199Z,8.00
2017-11-08T19:07:43.138Z,8.00
2017-11-08T19:10:45.096Z,8.00
2017-11-08T19:13:47.794Z,8.00
2017-11-08T19:16:50.912Z,8.00
2017-11-08T19:19:53.800Z,8.00
2017-11-08T19:22:55.763Z,8.00
2017-11-08T19:25:57.739Z,8.00
2017-11-08T19:29:00.395Z,8.00
2017-11-08T19:32:02.382Z,8.00
2017-11-08T19:35:04.715Z,8.00
2017-11-08T19:38:06.639Z,8.00
2017-11-08T19:41:09.772Z,8.00
2017-11-08T19:44:11.684Z,8.00
2017-11-08T19:47:13.791Z,8.00
2017-11-08T19:50:15.727Z,8.00
2017-11-08T19:53:17.996Z,8.00
2017-11-08T19:56:20.763Z,8.00
2017-11-08T19:59:22.757Z,7.90
2017-11-08T20:02:24.741Z,8.00
2017-11-08T20:05:27.547Z,7.90
2017-11-08T20:08:30.323Z,8.00
2017-11-08T20:11:32.262Z,7.90
2017-11-08T20:14:34.230Z,7.90
2017-11-08T20:17:37.132Z,7.90
2017-11-08T20:20:40.237Z,7.80
2017-11-08T20:23:43.867Z,7.80
2017-11-08T20:26:46.120Z,7.80
2017-11-08T20:29:49.161Z,7.80
2017-11-08T20:32:52.683Z,7.70
2017-11-08T20:35:56.002Z,7.70
2017-11-08T20:38:58.283Z,7.70
2017-11-08T20:42:01.287Z,7.70
2017-11-08T20:45:04.029Z,7.70
2017-11-08T20:48:06.430Z,7.70
2017-11-08T20:51:08.333Z,7.80
2017-11-08T20:54:10.549Z,7.80
2017-11-08T20:57:13.318Z,7.80
2017-11-08T21:00:15.425Z,7.80
2017-11-08T21:03:18.244Z,7.80
2017-11-08T21:06:21.319Z,7.80
2017-11-08T21:09:23.316Z,7.80
2017-11-08T21:12:25.297Z,7.80
2017-11-08T21:15:27.282Z,7.80
2017-11-08T21:18:29.238Z,7.80
2017-11-08T21:21:31.140Z,7.80
2017-11-08T21:24:34.122Z,7.80
2017-11-08T21:27:36.353Z,7.80
2017-11-08T21:30:39.309Z,7.70
2017-11-08T21:33:41.231Z,7.70
2017-11-08T21:36:43.158Z,7.70
2017-11-08T21:39:45.057Z,7.70
2017-11-08T21:42:47.109Z,7.70
2017-11-08T21:45:49.031Z,7.70
2017-11-08T21:48:51.026Z,7.70
2017-11-08T21:51:53.013Z,7.70
2017-11-08T21:54:55.803Z,7.70
2017-11-08T21:57:57.803Z,7.70
2017-11-08T22:00:59.776Z,7.70
2017-11-08T22:04:01.752Z,7.80
2017-11-08T22:07:03.741Z,7.70
2017-11-08T22:10:05.635Z,7.70
2017-11-08T22:13:07.612Z,7.70
2017-11-08T22:16:09.503Z,7.70
2017-11-08T22:19:11.457Z,7.70
2017-11-08T22:22:13.471Z,7.70
2017-11-08T22:25:15.410Z,7.70
2017-11-08T22:28:17.337Z,7.70
2017-11-08T22:31:20.027Z,7.70
2017-11-08T22:34:21.927Z,7.70
2017-11-08T22:37:25.118Z,7.70
2017-11-08T22:40:27.047Z,7.70
2017-11-08T22:43:29.076Z,7.70
2017-11-08T22:46:30.977Z,7.70
2017-11-08T22:49:32.989Z,7.70
2017-11-08T22:52:34.920Z,7.70
2017-11-08T22:55:36.869Z,7.70
2017-11-08T22:58:38.815Z,7.70
2017-11-08T23:01:41.531Z,7.70
2017-11-08T23:04:45.005Z,7.70
2017-11-08T23:07:46.948Z,7.70
2017-11-08T23:10:48.972Z,7.70
2017-11-08T23:13:50.916Z,7.70
2017-11-08T23:16:53.546Z,7.70
2017-11-08T23:19:55.838Z,7.70
2017-11-08T23:22:57.846Z,7.70
2017-11-08T23:26:00.338Z,7.70
2017-11-08T23:29:02.242Z,7.70
2017-11-08T23:32:05.315Z,7.70
2017-11-08T23:35:07.315Z,7.70
2017-11-08T23:38:10.840Z,7.70
2017-11-08T23:41:13.498Z,7.70
2017-11-08T23:44:15.752Z,7.70
2017-11-08T23:47:17.805Z,7.70
2017-11-08T23:50:20.067Z,7.70
2017-11-08T23:53:21.982Z,7.70
2017-11-08T23:56:23.903Z,7.70
2017-11-08T23:59:25.809Z,7.70
